createdAt,value
2019-05-28T00:01:47.021Z,3.42
2019-05-28T00:04:23.833Z,3.20
2019-05-28T00:06:59.936Z,3.27
2019-05-28T00:09:35.441Z,3.20
2019-05-28T00:12:15.635Z,3.13
2019-05-28T00:14:57.263Z,2.90
2019-05-28T00:17:34.535Z,3.05
2019-05-28T00:22:45.233Z,3.50
2019-05-28T00:25:24.536Z,3.10
2019-05-28T00:30:31.838Z,3.00
2019-05-28T00:33:08.066Z,2.90
2019-05-28T00:35:43.643Z,3.30
2019-05-28T00:38:19.403Z,2.92
2019-05-28T00:40:56.522Z,3.12
2019-05-28T00:43:32.719Z,3.52
2019-05-28T00:46:08.493Z,3.50
2019-05-28T00:48:45.837Z,2.58
2019-05-28T00:51:21.523Z,2.90
2019-05-28T00:53:59.331Z,3.20
2019-05-28T00:56:37.399Z,3.22
2019-05-28T00:59:16.811Z,3.15
2019-05-28T01:01:52.733Z,3.40
2019-05-28T01:04:28.693Z,2.95
2019-05-28T01:07:05.206Z,3.00
2019-05-28T01:09:41.107Z,3.00
2019-05-28T01:12:16.734Z,2.87
2019-05-28T01:14:53.325Z,2.52
2019-05-28T01:17:31.541Z,2.98
2019-05-28T01:20:09.057Z,3.25
2019-05-28T01:22:45.089Z,3.27
2019-05-28T01:25:21.601Z,2.83
2019-05-28T01:27:58.473Z,2.95
2019-05-28T01:30:53.431Z,3.30
2019-05-28T01:33:13.261Z,2.77
2019-05-28T01:35:53.534Z,2.50
2019-05-28T01:38:30.664Z,3.27
2019-05-28T01:41:12.152Z,2.95
2019-05-28T01:43:48.122Z,3.00
2019-05-28T01:46:28.219Z,2.90
2019-05-28T01:49:04.045Z,2.70
2019-05-28T01:51:40.327Z,2.70
2019-05-28T01:54:16.015Z,2.90
2019-05-28T01:57:01.053Z,3.98
2019-05-28T01:59:41.230Z,2.65
2019-05-28T02:02:22.639Z,3.12
2019-05-28T02:04:59.636Z,2.90
2019-05-28T02:07:37.226Z,2.92
2019-05-28T02:10:13.073Z,3.65
2019-05-28T02:12:49.875Z,3.33
2019-05-28T02:15:26.053Z,2.92
2019-05-28T02:18:02.737Z,3.45
2019-05-28T02:20:38.537Z,3.52
2019-05-28T02:25:53.983Z,3.30
2019-05-28T02:28:34.741Z,3.92
2019-05-28T02:31:25.017Z,3.72
2019-05-28T02:33:50.658Z,3.67
2019-05-28T02:36:25.828Z,3.72
2019-05-28T02:39:00.738Z,3.52
2019-05-28T02:41:37.211Z,4.43
2019-05-28T02:44:12.992Z,5.30
2019-05-28T02:46:48.328Z,3.93
2019-05-28T02:49:23.271Z,4.55
2019-05-28T02:52:05.585Z,4.08
2019-05-28T02:54:40.598Z,4.15
2019-05-28T02:57:16.716Z,4.15
2019-05-28T02:59:53.753Z,3.80
2019-05-28T03:02:29.963Z,3.95
2019-05-28T03:05:10.238Z,5.78
2019-05-28T03:07:49.691Z,4.15
2019-05-28T03:10:28.072Z,4.40
2019-05-28T03:13:03.239Z,3.98
2019-05-28T03:15:41.167Z,4.35
2019-05-28T03:18:17.908Z,4.60
2019-05-28T03:23:31.240Z,4.70
2019-05-28T03:32:10.643Z,5.25
2019-05-28T03:34:32.402Z,4.50
2019-05-28T03:37:10.467Z,5.95
2019-05-28T03:39:46.962Z,5.30
2019-05-28T03:42:22.523Z,4.78
2019-05-28T03:44:59.209Z,5.15
2019-05-28T03:47:36.726Z,5.30
2019-05-28T03:50:12.767Z,4.87
2019-05-28T03:52:52.477Z,5.45
2019-05-28T03:55:28.300Z,5.28
2019-05-28T03:58:05.155Z,4.97
2019-05-28T04:00:40.809Z,5.03
2019-05-28T04:03:16.444Z,5.47
2019-05-28T04:05:53.919Z,5.42
2019-05-28T04:08:31.313Z,5.12
2019-05-28T04:11:07.332Z,5.17
2019-05-28T04:13:43.080Z,5.05
2019-05-28T04:16:18.603Z,6.62
2019-05-28T04:19:03.932Z,6.00
2019-05-28T04:21:44.152Z,6.00
2019-05-28T04:24:19.905Z,6.03
2019-05-28T04:26:57.587Z,5.58
2019-05-28T04:29:33.644Z,6.12
2019-05-28T04:32:12.908Z,6.45
2019-05-28T04:34:48.862Z,6.03
2019-05-28T04:37:25.673Z,6.87
2019-05-28T04:40:06.082Z,6.75
2019-05-28T04:42:45.038Z,6.80
2019-05-28T04:45:25.057Z,32.65
2019-05-28T04:48:02.172Z,6.80
2019-05-28T04:50:44.587Z,5.87
2019-05-28T04:53:27.938Z,6.50
2019-05-28T04:56:07.426Z,6.60
2019-05-28T04:58:44.769Z,6.33
2019-05-28T05:01:24.712Z,6.55
2019-05-28T05:04:01.675Z,6.37
2019-05-28T05:06:44.178Z,7.03
2019-05-28T05:09:20.318Z,7.05
2019-05-28T05:12:01.405Z,6.62
2019-05-28T05:14:41.395Z,6.35
2019-05-28T05:17:26.727Z,6.53
2019-05-28T05:20:05.325Z,6.87
2019-05-28T05:22:45.477Z,6.70
2019-05-28T05:25:25.347Z,7.10
2019-05-28T05:28:01.311Z,7.62
2019-05-28T05:30:42.246Z,7.65
2019-05-28T05:33:22.436Z,7.62
2019-05-28T05:35:58.980Z,6.67
2019-05-28T05:38:40.855Z,7.47
2019-05-28T05:41:17.803Z,7.62
2019-05-28T05:44:04.891Z,6.37
2019-05-28T05:46:45.198Z,6.75
2019-05-28T05:49:22.699Z,6.95
2019-05-28T05:52:07.911Z,7.40
2019-05-28T05:54:59.283Z,6.92
2019-05-28T05:57:36.312Z,7.25
2019-05-28T06:00:12.547Z,7.15
2019-05-28T06:02:52.344Z,7.08
2019-05-28T06:05:31.332Z,8.35
2019-05-28T06:08:08.089Z,6.87
2019-05-28T06:10:45.254Z,7.17
2019-05-28T06:13:20.837Z,6.08
2019-05-28T06:15:57.417Z,7.17
2019-05-28T06:18:41.109Z,7.90
2019-05-28T06:27:22.901Z,7.00
2019-05-28T06:30:00.443Z,7.75
2019-05-28T06:32:38.892Z,7.20
2019-05-28T06:35:16.030Z,7.75
2019-05-28T06:37:52.608Z,8.63
2019-05-28T06:43:06.912Z,7.60
2019-05-28T06:45:47.075Z,8.05
2019-05-28T06:48:31.135Z,7.70
2019-05-28T06:51:11.253Z,8.68
2019-05-28T06:53:48.089Z,7.35
2019-05-28T06:56:24.844Z,8.60
2019-05-28T06:59:05.888Z,8.40
2019-05-28T07:01:45.937Z,9.58
2019-05-28T07:04:32.394Z,10.00
2019-05-28T07:09:38.961Z,9.53
2019-05-28T07:12:18.545Z,9.43
2019-05-28T07:15:00.794Z,9.48
2019-05-28T07:17:39.575Z,10.50
2019-05-28T07:20:16.876Z,9.55
2019-05-28T07:22:55.938Z,9.30
2019-05-28T07:25:32.924Z,9.55
2019-05-28T07:28:17.039Z,9.08
2019-05-28T07:31:04.988Z,8.50
2019-05-28T07:33:41.322Z,8.50
2019-05-28T07:36:18.911Z,10.78
2019-05-28T07:39:00.318Z,10.40
2019-05-28T07:41:37.400Z,10.15
2019-05-28T07:44:15.041Z,10.28
2019-05-28T07:46:52.191Z,11.40
2019-05-28T07:49:30.365Z,10.70
2019-05-28T07:52:07.047Z,12.30
2019-05-28T07:54:48.233Z,10.80
2019-05-28T07:57:27.202Z,11.83
2019-05-28T08:00:08.918Z,10.43
2019-05-28T08:02:48.805Z,9.55
2019-05-28T08:05:30.580Z,11.25
2019-05-28T08:08:16.117Z,11.43
2019-05-28T08:10:54.121Z,11.50
2019-05-28T08:13:40.051Z,11.38
2019-05-28T08:16:18.031Z,9.40
2019-05-28T08:18:50.423Z,9.75
2019-05-28T08:21:32.491Z,9.53
2019-05-28T08:24:12.137Z,12.65
2019-05-28T08:26:48.812Z,10.03
2019-05-28T08:29:28.744Z,10.08
2019-05-28T08:32:04.271Z,10.03
2019-05-28T08:35:03.887Z,10.23
2019-05-28T08:37:25.312Z,10.40
2019-05-28T08:40:02.475Z,9.98
2019-05-28T08:42:40.384Z,11.35
2019-05-28T08:45:17.031Z,11.45
2019-05-28T08:50:34.511Z,9.68
2019-05-28T08:53:10.096Z,9.80
2019-05-28T08:55:53.402Z,9.83
2019-05-28T09:01:41.177Z,14.33
2019-05-28T09:04:23.897Z,12.15
2019-05-28T09:10:10.335Z,11.00
2019-05-28T09:12:54.727Z,9.63
2019-05-28T09:15:44.396Z,10.15
2019-05-28T09:18:23.684Z,11.60
2019-05-28T09:21:04.427Z,17.77
2019-05-28T09:23:45.123Z,35.75
2019-05-28T09:26:22.728Z,13.53
2019-05-28T09:29:03.744Z,12.85
2019-05-28T09:31:40.005Z,10.95
2019-05-28T09:34:17.085Z,9.53
2019-05-28T09:36:54.844Z,10.08
2019-05-28T09:39:30.978Z,9.35
2019-05-28T09:42:07.096Z,8.95
2019-05-28T09:44:42.712Z,8.00
2019-05-28T09:47:18.561Z,8.08
2019-05-28T09:49:56.244Z,7.50
2019-05-28T09:55:06.579Z,7.00
2019-05-28T09:57:47.548Z,27.90
2019-05-28T10:00:22.257Z,24.27
2019-05-28T10:02:58.865Z,49.75
2019-05-28T10:05:36.327Z,11.45
2019-05-28T10:08:12.144Z,8.55
2019-05-28T10:10:49.128Z,9.00
2019-05-28T10:13:38.261Z,12.63
2019-05-28T10:18:38.522Z,7.08
2019-05-28T10:21:19.302Z,7.22
2019-05-28T10:23:55.951Z,8.08
2019-05-28T10:26:32.938Z,6.67
2019-05-28T10:29:08.793Z,6.30
2019-05-28T10:31:46.073Z,6.78
2019-05-28T10:34:23.012Z,6.15
2019-05-28T10:37:03.868Z,5.45
2019-05-28T10:39:41.113Z,5.62
2019-05-28T10:42:17.569Z,5.80
2019-05-28T10:44:55.865Z,6.17
2019-05-28T10:47:34.059Z,5.83
2019-05-28T10:50:10.771Z,5.62
2019-05-28T10:55:23.106Z,6.47
2019-05-28T10:58:00.355Z,5.25
2019-05-28T11:00:36.676Z,5.85
2019-05-28T11:03:13.634Z,5.80
2019-05-28T11:05:49.461Z,5.30
2019-05-28T11:08:29.635Z,5.17
2019-05-28T11:11:05.288Z,4.90
2019-05-28T11:13:52.556Z,5.00
2019-05-28T11:16:19.185Z,5.67
2019-05-28T11:18:58.681Z,6.35
2019-05-28T11:21:38.853Z,6.20
2019-05-28T11:24:15.076Z,5.97
2019-05-28T11:26:51.324Z,6.17
2019-05-28T11:29:26.987Z,6.30
2019-05-28T11:32:04.240Z,5.37
2019-05-28T11:34:41.481Z,5.05
2019-05-28T11:37:18.334Z,5.53
2019-05-28T11:42:33.995Z,5.25
2019-05-28T11:45:15.569Z,5.12
2019-05-28T11:47:56.061Z,5.35
2019-05-28T11:50:37.682Z,5.87
2019-05-28T11:53:14.877Z,4.97
2019-05-28T11:55:51.362Z,5.37
2019-05-28T11:58:29.614Z,5.40
2019-05-28T12:01:07.906Z,5.15
2019-05-28T12:03:43.862Z,5.37
2019-05-28T12:06:22.256Z,5.47
2019-05-28T12:09:00.635Z,5.35
2019-05-28T12:11:37.262Z,5.22
2019-05-28T12:14:18.389Z,6.65
2019-05-28T12:16:54.745Z,7.95
2019-05-28T12:19:35.482Z,7.42
2019-05-28T12:22:15.970Z,6.72
2019-05-28T12:24:56.813Z,7.33
2019-05-28T12:27:33.642Z,6.97
2019-05-28T12:30:17.782Z,9.28
2019-05-28T12:32:52.326Z,8.90
2019-05-28T12:35:30.243Z,8.98
2019-05-28T12:38:05.083Z,9.20
2019-05-28T12:40:47.563Z,8.33
2019-05-28T12:43:20.770Z,6.92
2019-05-28T12:45:56.613Z,7.25
2019-05-28T12:48:37.842Z,6.37
2019-05-28T12:51:17.454Z,5.90
2019-05-28T12:53:55.749Z,6.67
2019-05-28T12:56:33.607Z,7.80
2019-05-28T12:59:12.948Z,15.18
2019-05-28T13:01:50.789Z,9.88
2019-05-28T13:04:28.304Z,7.67
2019-05-28T13:07:03.971Z,8.23
2019-05-28T13:09:44.521Z,7.12
2019-05-28T13:12:50.654Z,7.35
2019-05-28T13:15:27.234Z,7.80
2019-05-28T13:18:11.035Z,5.45
2019-05-28T13:20:48.189Z,6.85
2019-05-28T13:23:25.814Z,6.62
2019-05-28T13:26:06.550Z,6.50
2019-05-28T13:28:44.801Z,6.58
2019-05-28T13:31:28.440Z,6.03
2019-05-28T13:34:05.953Z,6.37
2019-05-28T13:36:59.998Z,5.80
2019-05-28T13:39:42.417Z,5.50
2019-05-28T13:42:27.434Z,6.55
2019-05-28T13:45:17.790Z,5.22
2019-05-28T13:48:03.049Z,5.33
2019-05-28T13:50:40.028Z,5.65
2019-05-28T13:53:22.284Z,5.40
2019-05-28T13:56:07.255Z,5.50
2019-05-28T13:59:02.503Z,4.55
2019-05-28T14:01:38.701Z,5.08
2019-05-28T14:04:25.479Z,4.55
2019-05-28T14:07:05.747Z,4.83
2019-05-28T14:09:46.507Z,4.42
2019-05-28T14:12:23.313Z,4.40
2019-05-28T14:14:59.059Z,4.78
2019-05-28T14:17:39.040Z,4.87
2019-05-28T14:20:19.196Z,5.12
2019-05-28T14:22:57.658Z,5.20
2019-05-28T14:25:40.165Z,4.95
2019-05-28T14:28:21.589Z,4.58
2019-05-28T14:31:00.458Z,4.55
2019-05-28T14:33:41.797Z,4.60
2019-05-28T14:36:26.043Z,4.50
2019-05-28T14:39:04.401Z,4.05
2019-05-28T14:41:44.759Z,4.15
2019-05-28T14:44:25.279Z,4.15
2019-05-28T14:50:08.975Z,3.52
2019-05-28T14:55:50.393Z,3.98
2019-05-28T14:58:39.599Z,4.03
2019-05-28T15:01:19.454Z,3.58
2019-05-28T15:03:56.988Z,4.25
2019-05-28T15:06:38.314Z,3.37
2019-05-28T15:09:29.891Z,4.50
2019-05-28T15:12:09.998Z,3.70
2019-05-28T15:14:54.240Z,4.00
2019-05-28T15:17:39.834Z,4.12
2019-05-28T15:20:22.637Z,3.55
2019-05-28T15:23:13.245Z,3.72
2019-05-28T15:29:05.468Z,4.22
2019-05-28T15:31:42.866Z,3.70
2019-05-28T15:34:30.811Z,3.52
2019-05-28T15:37:14.001Z,3.42
2019-05-28T15:39:58.224Z,4.00
2019-05-28T15:45:41.168Z,4.03
2019-05-28T15:48:22.461Z,4.05
2019-05-28T15:51:11.993Z,4.60
2019-05-28T15:53:57.430Z,3.65
2019-05-28T15:56:43.836Z,3.52
2019-05-28T15:59:31.289Z,3.85
2019-05-28T16:02:21.842Z,3.83
2019-05-28T16:05:01.055Z,4.28
2019-05-28T16:07:41.884Z,3.52
2019-05-28T16:10:19.436Z,3.80
2019-05-28T16:13:03.383Z,3.98
2019-05-28T16:15:44.808Z,3.80
2019-05-28T16:18:23.108Z,3.95
2019-05-28T16:21:09.687Z,3.60
2019-05-28T16:23:46.914Z,4.00
2019-05-28T16:29:07.115Z,3.83
2019-05-28T16:31:43.665Z,4.10
2019-05-28T16:34:28.671Z,3.95
2019-05-28T16:37:06.082Z,3.98
2019-05-28T16:39:46.822Z,4.00
2019-05-28T16:42:29.735Z,3.90
2019-05-28T16:45:06.594Z,4.30
2019-05-28T16:47:53.897Z,4.08
2019-05-28T16:50:37.856Z,4.10
2019-05-28T16:53:17.031Z,4.28
2019-05-28T16:55:54.897Z,4.53
2019-05-28T17:01:22.536Z,4.65
2019-05-28T17:03:58.048Z,4.37
2019-05-28T17:06:38.524Z,4.40
2019-05-28T17:09:17.040Z,5.03
2019-05-28T17:11:58.563Z,4.15
2019-05-28T17:14:39.357Z,4.28
2019-05-28T17:17:21.310Z,4.72
2019-05-28T17:20:00.762Z,4.60
2019-05-28T17:22:41.643Z,4.55
2019-05-28T17:25:20.928Z,4.70
2019-05-28T17:28:01.356Z,4.95
2019-05-28T17:30:40.051Z,4.62
2019-05-28T17:33:18.675Z,4.92
2019-05-28T17:35:57.388Z,5.97
2019-05-28T17:38:36.001Z,4.62
2019-05-28T17:41:12.526Z,4.72
2019-05-28T17:43:48.179Z,5.08
2019-05-28T17:46:28.276Z,4.83
2019-05-28T17:49:07.915Z,5.10
2019-05-28T17:51:44.826Z,4.75
2019-05-28T17:56:56.306Z,4.75
2019-05-28T17:59:31.895Z,4.90
2019-05-28T18:02:11.483Z,5.00
2019-05-28T18:04:47.249Z,4.90
2019-05-28T18:07:25.583Z,4.67
2019-05-28T18:10:05.767Z,4.95
2019-05-28T18:12:41.528Z,4.47
2019-05-28T18:15:19.152Z,5.00
2019-05-28T18:17:57.530Z,5.10
2019-05-28T18:20:32.742Z,5.17
2019-05-28T18:23:09.987Z,5.05
2019-05-28T18:25:45.779Z,4.47
2019-05-28T18:28:24.796Z,4.75
2019-05-28T18:31:04.814Z,4.25
2019-05-28T18:33:41.644Z,4.08
2019-05-28T18:38:53.079Z,5.00
2019-05-28T18:44:05.346Z,4.70
2019-05-28T18:49:14.571Z,4.28
2019-05-28T18:51:54.198Z,4.22
2019-05-28T18:54:31.093Z,4.45
2019-05-28T18:59:40.651Z,4.33
2019-05-28T19:02:20.611Z,4.30
2019-05-28T19:04:56.007Z,4.35
2019-05-28T19:07:33.359Z,3.60
2019-05-28T19:10:13.632Z,4.03
2019-05-28T19:12:53.715Z,3.45
2019-05-28T19:15:30.835Z,3.52
2019-05-28T19:18:06.581Z,2.95
2019-05-28T19:20:43.277Z,3.45
2019-05-28T19:23:18.896Z,4.15
2019-05-28T19:25:55.816Z,3.45
2019-05-28T19:31:07.103Z,3.72
2019-05-28T19:33:44.083Z,3.20
2019-05-28T19:36:19.936Z,3.50
2019-05-28T19:38:57.810Z,3.15
2019-05-28T19:41:33.715Z,3.00
2019-05-28T19:44:09.448Z,3.67
2019-05-28T19:46:44.970Z,3.02
2019-05-28T19:49:20.706Z,3.17
2019-05-28T19:51:56.109Z,3.08
2019-05-28T19:54:31.941Z,3.05
2019-05-28T19:57:08.880Z,2.83
2019-05-28T20:02:18.300Z,2.87
2019-05-28T20:04:53.947Z,3.35
2019-05-28T20:07:29.357Z,3.20
2019-05-28T20:10:04.870Z,2.80
2019-05-28T20:12:40.809Z,2.80
2019-05-28T20:15:22.334Z,2.45
2019-05-28T20:17:56.739Z,2.52
2019-05-28T20:20:33.621Z,2.92
2019-05-28T20:23:09.178Z,3.10
2019-05-28T20:25:47.518Z,2.77
2019-05-28T20:28:21.240Z,3.30
2019-05-28T20:30:56.870Z,2.52
2019-05-28T20:33:34.056Z,2.70
2019-05-28T20:36:10.009Z,2.67
2019-05-28T20:38:47.101Z,2.67
2019-05-28T20:41:22.767Z,2.22
2019-05-28T20:43:58.722Z,5.08
2019-05-28T20:46:38.542Z,5.05
2019-05-28T20:49:13.944Z,4.00
2019-05-28T20:51:52.080Z,4.50
2019-05-28T20:54:26.097Z,4.90
2019-05-28T20:57:01.909Z,7.05
2019-05-28T20:59:37.652Z,5.95
2019-05-28T21:02:13.594Z,5.78
2019-05-28T21:04:50.205Z,6.25
2019-05-28T21:07:25.895Z,7.53
2019-05-28T21:10:01.421Z,7.25
2019-05-28T21:12:43.877Z,5.78
2019-05-28T21:15:16.094Z,6.22
2019-05-28T21:17:53.128Z,7.10
2019-05-28T21:23:02.596Z,6.20
2019-05-28T21:25:38.496Z,5.62
2019-05-28T21:28:14.032Z,5.97
2019-05-28T21:30:50.678Z,5.58
2019-05-28T21:33:26.654Z,5.83
2019-05-28T21:36:02.591Z,8.85
2019-05-28T21:38:39.675Z,9.00
2019-05-28T21:41:15.227Z,8.53
2019-05-28T21:43:51.762Z,5.67
2019-05-28T21:46:27.366Z,6.55
2019-05-28T21:49:03.081Z,6.42
2019-05-28T21:51:38.670Z,5.58
2019-05-28T21:54:14.357Z,7.05
2019-05-28T21:56:50.413Z,7.37
2019-05-28T21:59:26.145Z,5.03
2019-05-28T22:02:02.704Z,14.25
2019-05-28T22:04:38.372Z,14.60
2019-05-28T22:07:13.728Z,8.95
2019-05-28T22:09:51.085Z,6.90
2019-05-28T22:12:26.492Z,4.92
2019-05-28T22:15:02.335Z,4.50
2019-05-28T22:17:37.661Z,4.03
2019-05-28T22:20:13.944Z,3.87
2019-05-28T22:22:49.683Z,3.95
2019-05-28T22:25:25.304Z,4.05
2019-05-28T22:28:01.417Z,4.20
2019-05-28T22:30:37.325Z,3.77
2019-05-28T22:33:12.860Z,3.85
2019-05-28T22:35:48.416Z,3.98
2019-05-28T22:38:24.401Z,4.30
2019-05-28T22:41:00.399Z,3.80
2019-05-28T22:43:36.052Z,4.17
2019-05-28T22:46:12.812Z,5.05
2019-05-28T22:48:48.229Z,6.20
2019-05-28T22:51:23.886Z,5.50
2019-05-28T22:53:59.713Z,7.92
2019-05-28T22:56:35.603Z,9.35
2019-05-28T22:59:13.221Z,7.80
2019-05-28T23:01:50.247Z,8.58
2019-05-28T23:04:27.103Z,7.65
2019-05-28T23:09:38.803Z,7.90
2019-05-28T23:12:14.514Z,7.70
2019-05-28T23:14:50.014Z,7.30
2019-05-28T23:17:25.829Z,9.23
2019-05-28T23:20:02.743Z,7.75
2019-05-28T23:22:38.061Z,6.72
2019-05-28T23:25:14.368Z,6.15
2019-05-28T23:27:51.710Z,7.62
2019-05-28T23:30:27.747Z,8.13
2019-05-28T23:33:04.236Z,7.30
2019-05-28T23:35:41.114Z,6.80
2019-05-28T23:38:16.799Z,7.03
2019-05-28T23:40:52.432Z,6.40
2019-05-28T23:43:29.554Z,6.33
2019-05-28T23:46:05.961Z,5.33
2019-05-28T23:48:41.584Z,5.55
2019-05-28T23:51:16.982Z,5.10
2019-05-28T23:53:56.726Z,5.10
2019-05-28T23:56:32.144Z,4.55
2019-05-28T23:59:07.967Z,4.97
